sensor_id;sensor_type;location;lat;lon;timestamp;P1;durP1;ratioP1;P2;durP2;ratioP2
59476;SDS011;45713;49.766;6.592;2022-11-28T00:03:43;11.82;;;7.40;;
59476;SDS011;45713;49.766;6.592;2022-11-28T00:06:09;12.07;;;7.18;;
59476;SDS011;45713;49.766;6.592;2022-11-28T00:08:35;12.38;;;7.55;;
59476;SDS011;45713;49.766;6.592;2022-11-28T00:11:02;12.20;;;7.72;;
59476;SDS011;45713;49.766;6.592;2022-11-28T00:13:28;10.10;;;7.15;;
59476;SDS011;45713;49.766;6.592;2022-11-28T00:15:55;11.27;;;7.22;;
59476;SDS011;45713;49.766;6.592;2022-11-28T00:18:21;10.32;;;7.43;;
59476;SDS011;45713;49.766;6.592;2022-11-28T00:20:47;10.25;;;7.13;;
59476;SDS011;45713;49.766;6.592;2022-11-28T00:23:13;14.13;;;7.65;;
59476;SDS011;45713;49.766;6.592;2022-11-28T00:25:39;15.90;;;8.48;;
59476;SDS011;45713;49.766;6.592;2022-11-28T00:28:05;13.07;;;8.32;;
59476;SDS011;45713;49.766;6.592;2022-11-28T00:30:34;11.15;;;7.22;;
59476;SDS011;45713;49.766;6.592;2022-11-28T00:33:00;13.07;;;7.65;;
59476;SDS011;45713;49.766;6.592;2022-11-28T00:35:26;10.75;;;7.20;;
59476;SDS011;45713;49.766;6.592;2022-11-28T00:37:52;9.77;;;7.20;;
59476;SDS011;45713;49.766;6.592;2022-11-28T00:40:18;10.55;;;7.28;;
59476;SDS011;45713;49.766;6.592;2022-11-28T00:42:44;11.77;;;6.75;;
59476;SDS011;45713;49.766;6.592;2022-11-28T00:45:10;9.75;;;6.82;;
59476;SDS011;45713;49.766;6.592;2022-11-28T00:47:36;12.20;;;7.30;;
59476;SDS011;45713;49.766;6.592;2022-11-28T00:50:02;11.93;;;7.22;;
59476;SDS011;45713;49.766;6.592;2022-11-28T00:52:30;12.15;;;7.63;;
59476;SDS011;45713;49.766;6.592;2022-11-28T00:54:56;11.98;;;7.53;;
59476;SDS011;45713;49.766;6.592;2022-11-28T00:57:22;12.65;;;7.32;;
59476;SDS011;45713;49.766;6.592;2022-11-28T00:59:48;10.82;;;7.82;;
59476;SDS011;45713;49.766;6.592;2022-11-28T01:02:14;15.82;;;9.30;;
59476;SDS011;45713;49.766;6.592;2022-11-28T01:04:40;14.30;;;7.60;;
59476;SDS011;45713;49.766;6.592;2022-11-28T01:07:06;13.32;;;7.85;;
59476;SDS011;45713;49.766;6.592;2022-11-28T01:09:32;11.70;;;7.63;;
59476;SDS011;45713;49.766;6.592;2022-11-28T01:11:58;12.52;;;8.10;;
59476;SDS011;45713;49.766;6.592;2022-11-28T01:14:25;12.40;;;8.15;;
59476;SDS011;45713;49.766;6.592;2022-11-28T01:16:51;12.75;;;7.72;;
59476;SDS011;45713;49.766;6.592;2022-11-28T01:19:17;13.52;;;8.52;;
59476;SDS011;45713;49.766;6.592;2022-11-28T01:21:43;11.43;;;7.95;;
59476;SDS011;45713;49.766;6.592;2022-11-28T01:24:09;12.07;;;7.78;;
59476;SDS011;45713;49.766;6.592;2022-11-28T01:26:37;10.13;;;7.00;;
59476;SDS011;45713;49.766;6.592;2022-11-28T01:29:04;11.10;;;7.40;;
59476;SDS011;45713;49.766;6.592;2022-11-28T01:31:30;10.32;;;6.82;;
59476;SDS011;45713;49.766;6.592;2022-11-28T01:33:56;12.75;;;7.25;;
59476;SDS011;45713;49.766;6.592;2022-11-28T01:36:23;13.68;;;7.32;;
59476;SDS011;45713;49.766;6.592;2022-11-28T01:38:50;10.93;;;7.07;;
59476;SDS011;45713;49.766;6.592;2022-11-28T01:41:17;11.18;;;7.00;;
59476;SDS011;45713;49.766;6.592;2022-11-28T01:46:22;14.25;;;9.30;;
59476;SDS011;45713;49.766;6.592;2022-11-28T01:48:48;17.88;;;10.25;;
59476;SDS011;45713;49.766;6.592;2022-11-28T01:51:14;19.02;;;10.13;;
59476;SDS011;45713;49.766;6.592;2022-11-28T01:53:40;17.75;;;9.88;;
59476;SDS011;45713;49.766;6.592;2022-11-28T01:56:09;13.05;;;8.13;;
59476;SDS011;45713;49.766;6.592;2022-11-28T01:58:38;15.68;;;8.48;;
59476;SDS011;45713;49.766;6.592;2022-11-28T02:01:05;13.32;;;7.78;;
59476;SDS011;45713;49.766;6.592;2022-11-28T02:03:39;13.38;;;8.05;;
59476;SDS011;45713;49.766;6.592;2022-11-28T02:06:06;12.38;;;7.28;;
59476;SDS011;45713;49.766;6.592;2022-11-28T02:08:33;10.85;;;7.20;;
59476;SDS011;45713;49.766;6.592;2022-11-28T02:13:46;13.32;;;7.18;;
59476;SDS011;45713;49.766;6.592;2022-11-28T02:18:58;9.98;;;7.20;;
59476;SDS011;45713;49.766;6.592;2022-11-28T02:21:34;13.43;;;7.07;;
59476;SDS011;45713;49.766;6.592;2022-11-28T02:34:49;9.52;;;7.00;;
59476;SDS011;45713;49.766;6.592;2022-11-28T02:44:47;12.88;;;7.32;;
59476;SDS011;45713;49.766;6.592;2022-11-28T02:47:58;11.77;;;7.22;;
59476;SDS011;45713;49.766;6.592;2022-11-28T02:50:09;10.38;;;6.88;;
59476;SDS011;45713;49.766;6.592;2022-11-28T02:55:25;10.95;;;7.70;;
59476;SDS011;45713;49.766;6.592;2022-11-28T02:57:52;12.15;;;7.22;;
59476;SDS011;45713;49.766;6.592;2022-11-28T03:03:01;11.73;;;6.82;;
59476;SDS011;45713;49.766;6.592;2022-11-28T03:05:32;12.85;;;7.22;;
59476;SDS011;45713;49.766;6.592;2022-11-28T03:13:06;11.23;;;7.60;;
59476;SDS011;45713;49.766;6.592;2022-11-28T03:18:21;10.98;;;7.03;;
59476;SDS011;45713;49.766;6.592;2022-11-28T03:21:03;12.15;;;7.03;;
59476;SDS011;45713;49.766;6.592;2022-11-28T03:23:33;10.48;;;7.20;;
59476;SDS011;45713;49.766;6.592;2022-11-28T03:26:07;11.80;;;7.20;;
59476;SDS011;45713;49.766;6.592;2022-11-28T03:28:43;12.05;;;7.93;;
59476;SDS011;45713;49.766;6.592;2022-11-28T03:31:14;11.25;;;6.82;;
59476;SDS011;45713;49.766;6.592;2022-11-28T03:33:43;12.82;;;7.10;;
59476;SDS011;45713;49.766;6.592;2022-11-28T03:36:11;11.90;;;7.40;;
59476;SDS011;45713;49.766;6.592;2022-11-28T03:38:40;12.25;;;8.13;;
59476;SDS011;45713;49.766;6.592;2022-11-28T03:41:09;14.63;;;7.97;;
59476;SDS011;45713;49.766;6.592;2022-11-28T03:43:40;13.23;;;8.20;;
59476;SDS011;45713;49.766;6.592;2022-11-28T03:46:10;12.18;;;7.05;;
59476;SDS011;45713;49.766;6.592;2022-11-28T03:48:40;12.23;;;7.70;;
59476;SDS011;45713;49.766;6.592;2022-11-28T03:53:35;9.77;;;7.10;;
59476;SDS011;45713;49.766;6.592;2022-11-28T04:01:35;11.05;;;6.95;;
59476;SDS011;45713;49.766;6.592;2022-11-28T04:09:06;10.85;;;7.03;;
59476;SDS011;45713;49.766;6.592;2022-11-28T04:11:36;11.13;;;7.10;;
59476;SDS011;45713;49.766;6.592;2022-11-28T04:14:05;12.25;;;7.53;;
59476;SDS011;45713;49.766;6.592;2022-11-28T04:16:34;13.98;;;7.97;;
59476;SDS011;45713;49.766;6.592;2022-11-28T04:24:24;11.98;;;7.40;;
59476;SDS011;45713;49.766;6.592;2022-11-28T04:26:52;12.32;;;7.95;;
59476;SDS011;45713;49.766;6.592;2022-11-28T04:29:19;12.52;;;7.80;;
59476;SDS011;45713;49.766;6.592;2022-11-28T04:31:47;12.77;;;7.47;;
59476;SDS011;45713;49.766;6.592;2022-11-28T04:34:16;11.68;;;7.07;;
59476;SDS011;45713;49.766;6.592;2022-11-28T04:36:43;13.88;;;7.80;;
59476;SDS011;45713;49.766;6.592;2022-11-28T04:39:13;12.98;;;8.18;;
59476;SDS011;45713;49.766;6.592;2022-11-28T04:41:42;10.45;;;7.57;;
59476;SDS011;45713;49.766;6.592;2022-11-28T04:46:40;11.73;;;8.13;;
59476;SDS011;45713;49.766;6.592;2022-11-28T04:49:07;11.32;;;6.88;;
59476;SDS011;45713;49.766;6.592;2022-11-28T04:54:17;12.13;;;7.60;;
59476;SDS011;45713;49.766;6.592;2022-11-28T04:57:03;12.18;;;7.82;;
59476;SDS011;45713;49.766;6.592;2022-11-28T04:59:35;11.88;;;7.53;;
59476;SDS011;45713;49.766;6.592;2022-11-28T05:02:02;12.05;;;7.53;;
59476;SDS011;45713;49.766;6.592;2022-11-28T05:04:29;13.00;;;7.72;;
59476;SDS011;45713;49.766;6.592;2022-11-28T05:07:05;12.77;;;7.70;;
59476;SDS011;45713;49.766;6.592;2022-11-28T05:09:32;12.73;;;7.85;;
59476;SDS011;45713;49.766;6.592;2022-11-28T05:11:58;13.35;;;7.95;;
59476;SDS011;45713;49.766;6.592;2022-11-28T05:14:24;11.27;;;7.47;;
59476;SDS011;45713;49.766;6.592;2022-11-28T05:16:50;10.00;;;6.72;;
59476;SDS011;45713;49.766;6.592;2022-11-28T05:19:16;13.15;;;8.13;;
59476;SDS011;45713;49.766;6.592;2022-11-28T05:21:42;12.70;;;7.78;;
59476;SDS011;45713;49.766;6.592;2022-11-28T05:24:08;11.13;;;8.05;;
59476;SDS011;45713;49.766;6.592;2022-11-28T05:26:34;11.30;;;7.82;;
59476;SDS011;45713;49.766;6.592;2022-11-28T05:29:02;15.80;;;8.20;;
59476;SDS011;45713;49.766;6.592;2022-11-28T05:31:28;13.68;;;7.85;;
59476;SDS011;45713;49.766;6.592;2022-11-28T05:33:54;12.38;;;8.05;;
59476;SDS011;45713;49.766;6.592;2022-11-28T05:36:20;11.35;;;7.82;;
59476;SDS011;45713;49.766;6.592;2022-11-28T05:38:46;11.18;;;7.28;;
59476;SDS011;45713;49.766;6.592;2022-11-28T05:41:20;15.45;;;8.10;;
59476;SDS011;45713;49.766;6.592;2022-11-28T05:43:46;12.48;;;8.18;;
59476;SDS011;45713;49.766;6.592;2022-11-28T05:46:12;12.32;;;7.90;;
59476;SDS011;45713;49.766;6.592;2022-11-28T05:48:38;12.43;;;8.30;;
59476;SDS011;45713;49.766;6.592;2022-11-28T05:51:04;12.85;;;8.02;;
59476;SDS011;45713;49.766;6.592;2022-11-28T05:53:31;10.70;;;6.93;;
59476;SDS011;45713;49.766;6.592;2022-11-28T05:55:57;13.05;;;8.10;;
59476;SDS011;45713;49.766;6.592;2022-11-28T05:58:23;11.18;;;7.75;;
59476;SDS011;45713;49.766;6.592;2022-11-28T06:00:49;12.60;;;7.95;;
59476;SDS011;45713;49.766;6.592;2022-11-28T06:03:15;12.10;;;7.20;;
59476;SDS011;45713;49.766;6.592;2022-11-28T06:05:42;10.73;;;7.53;;
59476;SDS011;45713;49.766;6.592;2022-11-28T06:08:08;10.65;;;7.28;;
59476;SDS011;45713;49.766;6.592;2022-11-28T06:10:35;11.20;;;6.85;;
59476;SDS011;45713;49.766;6.592;2022-11-28T06:13:01;11.50;;;7.80;;
59476;SDS011;45713;49.766;6.592;2022-11-28T06:15:31;12.65;;;7.57;;
59476;SDS011;45713;49.766;6.592;2022-11-28T06:17:57;11.68;;;7.78;;
59476;SDS011;45713;49.766;6.592;2022-11-28T06:20:23;10.13;;;7.40;;
59476;SDS011;45713;49.766;6.592;2022-11-28T06:22:49;10.80;;;7.20;;
59476;SDS011;45713;49.766;6.592;2022-11-28T06:25:15;11.38;;;7.43;;
59476;SDS011;45713;49.766;6.592;2022-11-28T06:27:41;12.23;;;7.68;;
59476;SDS011;45713;49.766;6.592;2022-11-28T06:30:07;13.30;;;7.43;;
59476;SDS011;45713;49.766;6.592;2022-11-28T06:32:33;10.23;;;7.13;;
59476;SDS011;45713;49.766;6.592;2022-11-28T06:34:59;10.50;;;7.53;;
59476;SDS011;45713;49.766;6.592;2022-11-28T06:37:25;12.63;;;7.43;;
59476;SDS011;45713;49.766;6.592;2022-11-28T06:39:51;11.60;;;7.18;;
59476;SDS011;45713;49.766;6.592;2022-11-28T06:42:17;13.30;;;8.85;;
59476;SDS011;45713;49.766;6.592;2022-11-28T06:44:43;13.43;;;8.35;;
59476;SDS011;45713;49.766;6.592;2022-11-28T06:47:09;15.48;;;7.75;;
59476;SDS011;45713;49.766;6.592;2022-11-28T06:49:35;14.07;;;8.80;;
59476;SDS011;45713;49.766;6.592;2022-11-28T06:52:01;14.70;;;8.75;;
59476;SDS011;45713;49.766;6.592;2022-11-28T06:54:28;11.90;;;7.15;;
59476;SDS011;45713;49.766;6.592;2022-11-28T06:56:54;9.88;;;6.28;;
59476;SDS011;45713;49.766;6.592;2022-11-28T06:59:20;12.75;;;7.90;;
59476;SDS011;45713;49.766;6.592;2022-11-28T07:01:46;13.18;;;7.65;;
59476;SDS011;45713;49.766;6.592;2022-11-28T07:04:13;10.95;;;7.55;;
59476;SDS011;45713;49.766;6.592;2022-11-28T07:06:39;14.30;;;7.90;;
59476;SDS011;45713;49.766;6.592;2022-11-28T07:09:05;14.35;;;8.60;;
59476;SDS011;45713;49.766;6.592;2022-11-28T07:11:31;12.40;;;8.27;;
59476;SDS011;45713;49.766;6.592;2022-11-28T07:13:57;12.25;;;7.80;;
59476;SDS011;45713;49.766;6.592;2022-11-28T07:16:25;13.40;;;8.10;;
59476;SDS011;45713;49.766;6.592;2022-11-28T07:18:52;12.10;;;7.43;;
59476;SDS011;45713;49.766;6.592;2022-11-28T07:21:18;11.93;;;7.35;;
59476;SDS011;45713;49.766;6.592;2022-11-28T07:23:45;11.95;;;7.63;;
59476;SDS011;45713;49.766;6.592;2022-11-28T07:26:12;10.52;;;7.93;;
59476;SDS011;45713;49.766;6.592;2022-11-28T07:28:38;14.80;;;7.78;;
59476;SDS011;45713;49.766;6.592;2022-11-28T07:31:12;9.43;;;7.53;;
59476;SDS011;45713;49.766;6.592;2022-11-28T07:33:38;10.43;;;6.93;;
59476;SDS011;45713;49.766;6.592;2022-11-28T07:36:06;11.43;;;7.35;;
59476;SDS011;45713;49.766;6.592;2022-11-28T07:38:32;11.13;;;7.18;;
59476;SDS011;45713;49.766;6.592;2022-11-28T07:41:02;11.02;;;6.93;;
59476;SDS011;45713;49.766;6.592;2022-11-28T07:43:28;11.95;;;7.40;;
59476;SDS011;45713;49.766;6.592;2022-11-28T07:45:54;10.88;;;7.32;;
59476;SDS011;45713;49.766;6.592;2022-11-28T07:48:20;10.68;;;7.07;;
59476;SDS011;45713;49.766;6.592;2022-11-28T07:50:46;10.70;;;6.50;;
59476;SDS011;45713;49.766;6.592;2022-11-28T07:53:12;14.13;;;6.97;;
59476;SDS011;45713;49.766;6.592;2022-11-28T07:55:39;12.05;;;7.38;;
59476;SDS011;45713;49.766;6.592;2022-11-28T07:58:05;11.98;;;7.57;;
59476;SDS011;45713;49.766;6.592;2022-11-28T08:00:31;12.00;;;6.93;;
59476;SDS011;45713;49.766;6.592;2022-11-28T08:02:57;9.65;;;6.40;;
59476;SDS011;45713;49.766;6.592;2022-11-28T08:05:23;11.75;;;6.72;;
59476;SDS011;45713;49.766;6.592;2022-11-28T08:07:49;10.30;;;6.78;;
59476;SDS011;45713;49.766;6.592;2022-11-28T08:10:16;10.07;;;6.63;;
59476;SDS011;45713;49.766;6.592;2022-11-28T08:12:42;10.93;;;7.25;;
59476;SDS011;45713;49.766;6.592;2022-11-28T08:15:08;11.23;;;7.35;;
59476;SDS011;45713;49.766;6.592;2022-11-28T08:17:34;11.50;;;7.03;;
59476;SDS011;45713;49.766;6.592;2022-11-28T08:20:00;10.70;;;6.93;;
59476;SDS011;45713;49.766;6.592;2022-11-28T08:22:27;10.57;;;7.30;;
59476;SDS011;45713;49.766;6.592;2022-11-28T08:24:53;14.02;;;7.55;;
59476;SDS011;45713;49.766;6.592;2022-11-28T08:27:19;12.57;;;7.57;;
59476;SDS011;45713;49.766;6.592;2022-11-28T08:29:45;13.32;;;7.03;;
59476;SDS011;45713;49.766;6.592;2022-11-28T08:32:11;9.50;;;6.38;;
59476;SDS011;45713;49.766;6.592;2022-11-28T08:34:37;12.18;;;6.82;;
59476;SDS011;45713;49.766;6.592;2022-11-28T08:37:03;11.85;;;6.72;;
59476;SDS011;45713;49.766;6.592;2022-11-28T08:39:29;12.70;;;7.10;;
59476;SDS011;45713;49.766;6.592;2022-11-28T08:41:55;10.10;;;6.25;;
59476;SDS011;45713;49.766;6.592;2022-11-28T08:44:25;11.07;;;6.57;;
59476;SDS011;45713;49.766;6.592;2022-11-28T08:46:51;11.23;;;7.55;;
59476;SDS011;45713;49.766;6.592;2022-11-28T08:49:17;10.57;;;6.68;;
59476;SDS011;45713;49.766;6.592;2022-11-28T08:51:43;11.63;;;7.38;;
59476;SDS011;45713;49.766;6.592;2022-11-28T08:54:09;10.73;;;7.25;;
59476;SDS011;45713;49.766;6.592;2022-11-28T08:56:35;9.75;;;6.45;;
59476;SDS011;45713;49.766;6.592;2022-11-28T08:59:01;11.18;;;6.50;;
59476;SDS011;45713;49.766;6.592;2022-11-28T09:01:30;11.10;;;6.65;;
59476;SDS011;45713;49.766;6.592;2022-11-28T09:03:56;11.50;;;7.47;;
59476;SDS011;45713;49.766;6.592;2022-11-28T09:06:22;11.43;;;6.60;;
59476;SDS011;45713;49.766;6.592;2022-11-28T09:08:49;11.40;;;7.43;;
59476;SDS011;45713;49.766;6.592;2022-11-28T09:11:16;12.57;;;7.78;;
59476;SDS011;45713;49.766;6.592;2022-11-28T09:13:43;9.75;;;6.57;;
59476;SDS011;45713;49.766;6.592;2022-11-28T09:16:09;9.85;;;6.88;;
59476;SDS011;45713;49.766;6.592;2022-11-28T09:18:35;10.25;;;6.40;;
59476;SDS011;45713;49.766;6.592;2022-11-28T09:21:05;10.00;;;6.97;;
59476;SDS011;45713;49.766;6.592;2022-11-28T09:23:36;12.15;;;7.20;;
59476;SDS011;45713;49.766;6.592;2022-11-28T09:26:06;12.82;;;7.13;;
59476;SDS011;45713;49.766;6.592;2022-11-28T09:28:32;9.00;;;6.82;;
59476;SDS011;45713;49.766;6.592;2022-11-28T09:31:02;9.13;;;6.50;;
59476;SDS011;45713;49.766;6.592;2022-11-28T09:35:54;12.73;;;7.18;;
59476;SDS011;45713;49.766;6.592;2022-11-28T09:38:22;14.15;;;7.07;;
59476;SDS011;45713;49.766;6.592;2022-11-28T09:40:48;12.82;;;6.97;;
59476;SDS011;45713;49.766;6.592;2022-11-28T09:43:14;11.02;;;6.03;;
59476;SDS011;45713;49.766;6.592;2022-11-28T09:45:42;10.00;;;6.22;;
59476;SDS011;45713;49.766;6.592;2022-11-28T09:48:54;11.48;;;6.55;;
59476;SDS011;45713;49.766;6.592;2022-11-28T09:50:57;10.52;;;6.57;;
59476;SDS011;45713;49.766;6.592;2022-11-28T09:53:28;11.63;;;6.68;;
59476;SDS011;45713;49.766;6.592;2022-11-28T09:55:59;10.18;;;6.53;;
59476;SDS011;45713;49.766;6.592;2022-11-28T09:58:37;11.18;;;6.65;;
59476;SDS011;45713;49.766;6.592;2022-11-28T10:01:12;9.40;;;6.43;;
59476;SDS011;45713;49.766;6.592;2022-11-28T10:14:53;12.30;;;6.22;;
59476;SDS011;45713;49.766;6.592;2022-11-28T10:19:17;10.43;;;6.22;;
59476;SDS011;45713;49.766;6.592;2022-11-28T10:21:48;12.75;;;6.93;;
59476;SDS011;45713;49.766;6.592;2022-11-28T10:24:16;10.82;;;6.50;;
59476;SDS011;45713;49.766;6.592;2022-11-28T10:26:44;9.20;;;6.30;;
59476;SDS011;45713;49.766;6.592;2022-11-28T10:31:44;12.13;;;8.90;;
59476;SDS011;45713;49.766;6.592;2022-11-28T10:34:15;12.07;;;7.60;;
59476;SDS011;45713;49.766;6.592;2022-11-28T10:39:19;10.70;;;7.55;;
59476;SDS011;45713;49.766;6.592;2022-11-28T10:44:37;12.68;;;7.03;;
59476;SDS011;45713;49.766;6.592;2022-11-28T10:52:09;11.35;;;7.53;;
59476;SDS011;45713;49.766;6.592;2022-11-28T10:57:23;11.65;;;7.25;;
59476;SDS011;45713;49.766;6.592;2022-11-28T11:02:21;12.18;;;7.10;;
59476;SDS011;45713;49.766;6.592;2022-11-28T11:04:51;12.10;;;6.63;;
59476;SDS011;45713;49.766;6.592;2022-11-28T11:07:23;11.13;;;6.78;;
59476;SDS011;45713;49.766;6.592;2022-11-28T11:09:51;11.18;;;7.88;;
59476;SDS011;45713;49.766;6.592;2022-11-28T11:12:22;10.30;;;7.57;;
59476;SDS011;45713;49.766;6.592;2022-11-28T11:14:50;12.75;;;7.13;;
59476;SDS011;45713;49.766;6.592;2022-11-28T11:17:26;9.18;;;7.13;;
59476;SDS011;45713;49.766;6.592;2022-11-28T11:19:52;14.60;;;7.38;;
59476;SDS011;45713;49.766;6.592;2022-11-28T11:22:20;12.32;;;8.23;;
59476;SDS011;45713;49.766;6.592;2022-11-28T11:27:31;11.05;;;6.82;;
59476;SDS011;45713;49.766;6.592;2022-11-28T11:29:57;12.88;;;6.93;;
59476;SDS011;45713;49.766;6.592;2022-11-28T11:32:27;11.27;;;6.97;;
59476;SDS011;45713;49.766;6.592;2022-11-28T11:34:54;10.88;;;7.28;;
59476;SDS011;45713;49.766;6.592;2022-11-28T11:37:54;12.88;;;6.80;;
59476;SDS011;45713;49.766;6.592;2022-11-28T11:40:31;9.88;;;6.97;;
59476;SDS011;45713;49.766;6.592;2022-11-28T11:42:58;10.38;;;6.85;;
59476;SDS011;45713;49.766;6.592;2022-11-28T11:45:25;11.18;;;7.95;;
59476;SDS011;45713;49.766;6.592;2022-11-28T11:47:52;10.07;;;7.75;;
59476;SDS011;45713;49.766;6.592;2022-11-28T11:50:19;9.90;;;7.00;;
59476;SDS011;45713;49.766;6.592;2022-11-28T11:55:27;9.75;;;7.03;;
59476;SDS011;45713;49.766;6.592;2022-11-28T11:57:53;14.43;;;7.57;;
59476;SDS011;45713;49.766;6.592;2022-11-28T12:00:25;9.77;;;7.15;;
59476;SDS011;45713;49.766;6.592;2022-11-28T12:02:57;11.25;;;6.78;;
59476;SDS011;45713;49.766;6.592;2022-11-28T12:05:25;10.57;;;7.00;;
59476;SDS011;45713;49.766;6.592;2022-11-28T12:10:25;13.00;;;7.80;;
59476;SDS011;45713;49.766;6.592;2022-11-28T12:12:52;12.35;;;6.90;;
59476;SDS011;45713;49.766;6.592;2022-11-28T12:15:33;11.68;;;7.13;;
59476;SDS011;45713;49.766;6.592;2022-11-28T12:18:51;12.07;;;7.65;;
59476;SDS011;45713;49.766;6.592;2022-11-28T12:31:30;13.13;;;8.00;;
59476;SDS011;45713;49.766;6.592;2022-11-28T12:42:21;12.05;;;7.97;;
59476;SDS011;45713;49.766;6.592;2022-11-28T12:50:46;10.25;;;7.35;;
59476;SDS011;45713;49.766;6.592;2022-11-28T12:53:20;8.57;;;6.57;;
59476;SDS011;45713;49.766;6.592;2022-11-28T13:04:00;11.00;;;7.57;;
59476;SDS011;45713;49.766;6.592;2022-11-28T13:12:06;11.68;;;7.35;;
59476;SDS011;45713;49.766;6.592;2022-11-28T13:14:53;12.25;;;8.55;;
59476;SDS011;45713;49.766;6.592;2022-11-28T13:20:00;11.27;;;7.78;;
59476;SDS011;45713;49.766;6.592;2022-11-28T13:22:33;12.70;;;7.68;;
59476;SDS011;45713;49.766;6.592;2022-11-28T13:28:47;12.90;;;8.43;;
59476;SDS011;45713;49.766;6.592;2022-11-28T13:30:49;10.73;;;7.30;;
59476;SDS011;45713;49.766;6.592;2022-11-28T13:36:00;11.82;;;7.93;;
59476;SDS011;45713;49.766;6.592;2022-11-28T13:40:55;14.32;;;8.57;;
59476;SDS011;45713;49.766;6.592;2022-11-28T13:45:49;13.93;;;8.20;;
59476;SDS011;45713;49.766;6.592;2022-11-28T13:53:39;15.20;;;10.27;;
59476;SDS011;45713;49.766;6.592;2022-11-28T14:01:08;14.57;;;9.77;;
59476;SDS011;45713;49.766;6.592;2022-11-28T14:03:41;15.02;;;9.45;;
59476;SDS011;45713;49.766;6.592;2022-11-28T14:06:09;15.18;;;9.20;;
59476;SDS011;45713;49.766;6.592;2022-11-28T14:08:36;15.38;;;9.02;;
59476;SDS011;45713;49.766;6.592;2022-11-28T14:11:13;13.75;;;9.10;;
59476;SDS011;45713;49.766;6.592;2022-11-28T14:16:30;15.68;;;8.98;;
59476;SDS011;45713;49.766;6.592;2022-11-28T14:21:55;14.27;;;9.50;;
59476;SDS011;45713;49.766;6.592;2022-11-28T14:24:37;13.57;;;9.68;;
59476;SDS011;45713;49.766;6.592;2022-11-28T14:27:05;15.77;;;10.85;;
59476;SDS011;45713;49.766;6.592;2022-11-28T14:29:33;16.40;;;10.95;;
59476;SDS011;45713;49.766;6.592;2022-11-28T14:32:00;16.05;;;11.02;;
59476;SDS011;45713;49.766;6.592;2022-11-28T14:34:46;15.95;;;10.18;;
59476;SDS011;45713;49.766;6.592;2022-11-28T14:39:44;15.45;;;9.95;;
59476;SDS011;45713;49.766;6.592;2022-11-28T14:49:41;15.80;;;11.52;;
59476;SDS011;45713;49.766;6.592;2022-11-28T14:54:33;14.60;;;10.10;;
59476;SDS011;45713;49.766;6.592;2022-11-28T14:57:00;11.93;;;9.55;;
59476;SDS011;45713;49.766;6.592;2022-11-28T14:59:31;12.93;;;8.70;;
59476;SDS011;45713;49.766;6.592;2022-11-28T15:02:01;13.20;;;8.70;;
59476;SDS011;45713;49.766;6.592;2022-11-28T15:04:53;15.82;;;9.40;;
59476;SDS011;45713;49.766;6.592;2022-11-28T15:07:26;19.33;;;10.93;;
59476;SDS011;45713;49.766;6.592;2022-11-28T15:10:00;13.15;;;8.57;;
59476;SDS011;45713;49.766;6.592;2022-11-28T15:12:38;13.18;;;9.73;;
59476;SDS011;45713;49.766;6.592;2022-11-28T15:15:08;13.90;;;8.88;;
59476;SDS011;45713;49.766;6.592;2022-11-28T15:17:36;12.85;;;8.77;;
59476;SDS011;45713;49.766;6.592;2022-11-28T15:20:06;12.90;;;8.13;;
59476;SDS011;45713;49.766;6.592;2022-11-28T15:22:40;14.70;;;9.77;;
59476;SDS011;45713;49.766;6.592;2022-11-28T15:25:20;10.60;;;7.35;;
59476;SDS011;45713;49.766;6.592;2022-11-28T15:27:46;13.77;;;7.88;;
59476;SDS011;45713;49.766;6.592;2022-11-28T15:30:23;13.55;;;7.90;;
59476;SDS011;45713;49.766;6.592;2022-11-28T15:32:51;13.95;;;8.13;;
59476;SDS011;45713;49.766;6.592;2022-11-28T15:35:19;11.90;;;7.55;;
59476;SDS011;45713;49.766;6.592;2022-11-28T15:37:47;12.48;;;7.93;;
59476;SDS011;45713;49.766;6.592;2022-11-28T15:40:33;14.27;;;8.02;;
59476;SDS011;45713;49.766;6.592;2022-11-28T15:43:00;11.73;;;7.63;;
59476;SDS011;45713;49.766;6.592;2022-11-28T15:47:52;13.20;;;8.18;;
59476;SDS011;45713;49.766;6.592;2022-11-28T15:50:20;11.13;;;7.88;;
59476;SDS011;45713;49.766;6.592;2022-11-28T15:52:53;11.32;;;7.70;;
59476;SDS011;45713;49.766;6.592;2022-11-28T15:55:19;13.27;;;8.27;;
59476;SDS011;45713;49.766;6.592;2022-11-28T15:57:46;13.88;;;7.85;;
59476;SDS011;45713;49.766;6.592;2022-11-28T16:00:15;14.30;;;8.43;;
59476;SDS011;45713;49.766;6.592;2022-11-28T16:02:42;11.45;;;6.75;;
59476;SDS011;45713;49.766;6.592;2022-11-28T16:05:13;10.52;;;7.47;;
59476;SDS011;45713;49.766;6.592;2022-11-28T16:07:41;12.30;;;8.55;;
59476;SDS011;45713;49.766;6.592;2022-11-28T16:12:46;13.63;;;7.80;;
59476;SDS011;45713;49.766;6.592;2022-11-28T16:15:19;15.18;;;9.07;;
59476;SDS011;45713;49.766;6.592;2022-11-28T16:17:46;13.45;;;8.40;;
59476;SDS011;45713;49.766;6.592;2022-11-28T16:20:18;12.68;;;8.98;;
59476;SDS011;45713;49.766;6.592;2022-11-28T16:22:45;12.77;;;8.48;;
59476;SDS011;45713;49.766;6.592;2022-11-28T16:25:19;14.77;;;9.18;;
59476;SDS011;45713;49.766;6.592;2022-11-28T16:27:45;19.58;;;12.95;;
59476;SDS011;45713;49.766;6.592;2022-11-28T16:32:52;31.75;;;21.33;;
59476;SDS011;45713;49.766;6.592;2022-11-28T16:37:51;30.40;;;18.90;;
59476;SDS011;45713;49.766;6.592;2022-11-28T16:40:23;39.47;;;22.67;;
59476;SDS011;45713;49.766;6.592;2022-11-28T16:42:55;32.03;;;22.45;;
59476;SDS011;45713;49.766;6.592;2022-11-28T16:45:27;15.48;;;8.88;;
59476;SDS011;45713;49.766;6.592;2022-11-28T16:47:54;16.42;;;10.38;;
59476;SDS011;45713;49.766;6.592;2022-11-28T16:50:25;16.17;;;10.35;;
59476;SDS011;45713;49.766;6.592;2022-11-28T16:52:54;18.50;;;12.85;;
59476;SDS011;45713;49.766;6.592;2022-11-28T16:57:59;15.80;;;10.30;;
59476;SDS011;45713;49.766;6.592;2022-11-28T17:00:34;17.63;;;11.75;;
59476;SDS011;45713;49.766;6.592;2022-11-28T17:03:01;19.83;;;12.10;;
59476;SDS011;45713;49.766;6.592;2022-11-28T17:05:27;15.77;;;10.30;;
59476;SDS011;45713;49.766;6.592;2022-11-28T17:07:53;16.40;;;9.55;;
59476;SDS011;45713;49.766;6.592;2022-11-28T17:10:20;16.70;;;10.80;;
59476;SDS011;45713;49.766;6.592;2022-11-28T17:12:46;15.73;;;11.60;;
59476;SDS011;45713;49.766;6.592;2022-11-28T17:15:16;16.17;;;10.07;;
59476;SDS011;45713;49.766;6.592;2022-11-28T17:17:42;18.42;;;11.35;;
59476;SDS011;45713;49.766;6.592;2022-11-28T17:20:10;13.15;;;8.85;;
59476;SDS011;45713;49.766;6.592;2022-11-28T17:22:37;15.23;;;9.98;;
59476;SDS011;45713;49.766;6.592;2022-11-28T17:25:05;15.15;;;9.55;;
59476;SDS011;45713;49.766;6.592;2022-11-28T17:27:32;15.65;;;9.50;;
59476;SDS011;45713;49.766;6.592;2022-11-28T17:29:58;16.25;;;9.75;;
59476;SDS011;45713;49.766;6.592;2022-11-28T17:32:24;15.70;;;9.68;;
59476;SDS011;45713;49.766;6.592;2022-11-28T17:34:50;14.75;;;9.20;;
59476;SDS011;45713;49.766;6.592;2022-11-28T17:37:16;12.60;;;8.75;;
59476;SDS011;45713;49.766;6.592;2022-11-28T17:39:42;13.32;;;8.98;;
59476;SDS011;45713;49.766;6.592;2022-11-28T17:42:28;12.35;;;8.85;;
59476;SDS011;45713;49.766;6.592;2022-11-28T17:44:54;14.73;;;9.20;;
59476;SDS011;45713;49.766;6.592;2022-11-28T17:47:20;15.20;;;10.20;;
59476;SDS011;45713;49.766;6.592;2022-11-28T17:49:47;16.45;;;9.60;;
59476;SDS011;45713;49.766;6.592;2022-11-28T17:52:13;15.80;;;9.40;;
59476;SDS011;45713;49.766;6.592;2022-11-28T17:54:40;15.70;;;10.57;;
59476;SDS011;45713;49.766;6.592;2022-11-28T17:57:06;17.98;;;11.38;;
59476;SDS011;45713;49.766;6.592;2022-11-28T17:59:32;18.95;;;12.95;;
59476;SDS011;45713;49.766;6.592;2022-11-28T18:02:00;23.83;;;16.27;;